Time,TemperatureF,DewpointF,PressureIn,WindDirection,WindDirectionDegrees,WindSpeedMPH,WindSpeedGustMPH,Humidity,HourlyPrecipIn,Conditions,Clouds,dailyrainin,SoftwareType,DateUTC
2013-08-31 00:05:00,63.5,56.8,30.30,SE,137,1.0,2.0,79,0.00,,,0.00,meteohub,2013-08-31 07:05:00,
2013-08-31 00:11:00,63.5,56.8,30.30,SW,214,1.0,3.0,79,0.00,,,0.00,meteohub,2013-08-31 07:11:00,
2013-08-31 00:16:00,63.5,56.8,30.30,SW,214,0.0,3.0,79,0.00,,,0.00,meteohub,2013-08-31 07:16:00,
2013-08-31 00:22:00,63.3,56.7,30.30,ESE,107,0.0,2.0,79,0.00,,,0.00,meteohub,2013-08-31 07:22:00,
2013-08-31 00:27:00,63.1,56.8,30.30,ESE,108,0.0,2.0,80,0.00,,,0.00,meteohub,2013-08-31 07:27:00,
2013-08-31 00:32:00,63.0,56.7,30.30,NE,35,0.0,2.0,80,0.00,,,0.00,meteohub,2013-08-31 07:32:00,
2013-08-31 00:37:00,62.8,56.5,30.30,SSE,161,0.0,2.0,80,0.00,,,0.00,meteohub,2013-08-31 07:37:00,
2013-08-31 00:42:00,62.6,56.7,30.30,SSE,161,0.0,2.0,81,0.00,,,0.00,meteohub,2013-08-31 07:42:00,
2013-08-31 00:48:00,62.2,56.3,30.30,SSE,161,0.0,2.0,81,0.00,,,0.00,meteohub,2013-08-31 07:48:00,
2013-08-31 00:53:00,62.2,56.3,30.30,SE,140,2.0,2.0,81,0.00,,,0.00,meteohub,2013-08-31 07:53:00,
2013-08-31 00:58:00,62.2,56.3,30.30,SE,145,0.0,2.0,81,0.00,,,0.00,meteohub,2013-08-31 07:58:00,
2013-08-31 01:04:00,61.9,56.3,30.30,ESE,115,1.0,2.0,82,0.00,,,0.00,meteohub,2013-08-31 08:04:00,
2013-08-31 01:10:00,61.9,55.9,30.30,ESE,115,0.0,2.0,81,0.00,,,0.00,meteohub,2013-08-31 08:10:00,
2013-08-31 01:15:00,61.5,55.9,30.30,ESE,116,0.0,2.0,82,0.00,,,0.00,meteohub,2013-08-31 08:15:00,
2013-08-31 01:20:00,61.3,55.8,30.30,ESE,115,0.0,0.0,82,0.00,,,0.00,meteohub,2013-08-31 08:20:00,
2013-08-31 01:26:00,61.3,56.1,30.30,West,277,1.0,1.0,83,0.00,,,0.00,meteohub,2013-08-31 08:26:00,
2013-08-31 01:31:00,61.9,56.3,30.30,SW,223,0.0,2.0,82,0.00,,,0.00,meteohub,2013-08-31 08:31:00,
2013-08-31 01:37:00,61.9,55.9,30.30,East,101,0.0,2.0,81,0.00,,,0.00,meteohub,2013-08-31 08:37:00,
2013-08-31 01:42:00,61.3,55.0,30.30,East,100,1.0,2.0,80,0.00,,,0.00,meteohub,2013-08-31 08:42:00,
2013-08-31 01:47:00,61.2,55.2,30.30,NNE,27,0.0,2.0,81,0.00,,,0.00,meteohub,2013-08-31 08:47:00,
2013-08-31 01:52:00,61.0,55.0,30.30,East,100,0.0,2.0,81,0.00,,,0.00,meteohub,2013-08-31 08:52:00,
2013-08-31 01:57:00,61.0,55.0,30.30,East,100,0.0,2.0,81,0.00,,,0.00,meteohub,2013-08-31 08:57:00,
2013-08-31 02:02:00,60.8,54.9,30.30,East,100,0.0,1.0,81,0.00,,,0.00,meteohub,2013-08-31 09:02:00,
2013-08-31 02:07:00,60.6,55.4,30.30,SE,138,0.0,1.0,83,0.00,,,0.00,meteohub,2013-08-31 09:07:00,
2013-08-31 02:13:00,60.6,55.4,30.30,SSE,152,2.0,2.0,83,0.00,,,0.00,meteohub,2013-08-31 09:13:00,
2013-08-31 02:18:00,60.3,55.4,30.30,SSE,159,2.0,4.0,84,0.00,,,0.00,meteohub,2013-08-31 09:18:00,
2013-08-31 02:23:00,59.9,55.0,30.30,SE,138,1.0,4.0,84,0.00,,,0.00,meteohub,2013-08-31 09:23:00,
2013-08-31 02:29:00,59.5,55.0,30.30,South,169,1.0,3.0,85,0.00,,,0.00,meteohub,2013-08-31 09:29:00,
2013-08-31 02:35:00,59.4,54.9,30.30,SSE,149,2.0,2.0,85,0.00,,,0.00,meteohub,2013-08-31 09:35:00,
2013-08-31 02:40:00,59.2,54.7,30.30,SSE,161,1.0,3.0,85,0.00,,,0.00,meteohub,2013-08-31 09:40:00,
2013-08-31 02:45:00,59.4,54.9,30.29,SE,145,2.0,4.0,85,0.00,,,0.00,meteohub,2013-08-31 09:45:00,
2013-08-31 02:50:00,59.7,55.2,30.30,SE,137,1.0,4.0,85,0.00,,,0.00,meteohub,2013-08-31 09:50:00,
2013-08-31 02:56:00,60.1,55.6,30.29,ESE,113,1.0,3.0,85,0.00,,,0.00,meteohub,2013-08-31 09:56:00,
2013-08-31 03:02:00,59.9,55.0,30.29,ESE,113,0.0,2.0,84,0.00,,,0.00,meteohub,2013-08-31 10:02:00,
2013-08-31 03:07:00,59.5,55.0,30.29,ESE,113,0.0,2.0,85,0.00,,,0.00,meteohub,2013-08-31 10:07:00,
2013-08-31 03:12:00,59.2,54.7,30.29,ESE,113,0.0,1.0,85,0.00,,,0.00,meteohub,2013-08-31 10:12:00,
2013-08-31 03:18:00,59.0,54.5,30.29,ESE,113,0.0,1.0,85,0.00,,,0.00,meteohub,2013-08-31 10:18:00,
2013-08-31 03:23:00,58.8,54.3,30.29,ESE,113,0.0,0.0,85,0.00,,,0.00,meteohub,2013-08-31 10:23:00,
2013-08-31 03:28:00,58.6,54.1,30.29,ESE,113,0.0,0.0,85,0.00,,,0.00,meteohub,2013-08-31 10:28:00,
2013-08-31 03:34:00,58.5,54.0,30.29,SE,146,0.0,1.0,85,0.00,,,0.00,meteohub,2013-08-31 10:34:00,
2013-08-31 03:39:00,58.3,54.1,30.29,SE,144,1.0,1.0,86,0.00,,,0.00,meteohub,2013-08-31 10:39:00,
2013-08-31 03:45:00,58.1,53.6,30.29,SE,144,0.0,1.0,85,0.00,,,0.00,meteohub,2013-08-31 10:45:00,
2013-08-31 03:50:00,57.9,53.8,30.29,SE,138,0.0,1.0,86,0.00,,,0.00,meteohub,2013-08-31 10:50:00,
2013-08-31 03:55:00,57.9,53.8,30.29,SE,146,1.0,1.0,86,0.00,,,0.00,meteohub,2013-08-31 10:55:00,
2013-08-31 04:01:00,57.9,53.8,30.29,SE,142,1.0,1.0,86,0.00,,,0.00,meteohub,2013-08-31 11:01:00,
2013-08-31 04:06:00,57.7,53.6,30.29,SSE,151,1.0,1.0,86,0.00,,,0.00,meteohub,2013-08-31 11:06:00,
2013-08-31 04:12:00,57.7,53.6,30.29,SSE,148,0.0,2.0,86,0.00,,,0.00,meteohub,2013-08-31 11:12:00,
2013-08-31 04:17:00,57.6,53.4,30.29,SE,146,0.0,2.0,86,0.00,,,0.00,meteohub,2013-08-31 11:17:00,
2013-08-31 04:22:00,57.6,53.4,30.29,SE,140,2.0,2.0,86,0.00,,,0.00,meteohub,2013-08-31 11:22:00,
2013-08-31 04:27:00,57.4,53.2,30.29,SSE,153,1.0,3.0,86,0.00,,,0.00,meteohub,2013-08-31 11:27:00,
2013-08-31 04:32:00,57.4,53.2,30.29,SSE,151,1.0,3.0,86,0.00,,,0.00,meteohub,2013-08-31 11:32:00,
2013-08-31 04:38:00,57.2,53.1,30.29,SSE,156,1.0,3.0,86,0.00,,,0.00,meteohub,2013-08-31 11:38:00,
2013-08-31 04:43:00,57.0,52.9,30.28,SE,144,2.0,3.0,86,0.00,,,0.00,meteohub,2013-08-31 11:43:00,
2013-08-31 04:49:00,57.0,52.9,30.28,SE,131,2.0,3.0,86,0.00,,,0.00,meteohub,2013-08-31 11:49:00,
2013-08-31 04:54:00,57.0,52.9,30.28,SE,141,2.0,3.0,86,0.00,,,0.00,meteohub,2013-08-31 11:54:00,
2013-08-31 04:59:00,57.0,52.9,30.29,SSE,159,1.0,3.0,86,0.00,,,0.00,meteohub,2013-08-31 11:59:00,
2013-08-31 05:05:00,56.8,52.7,30.29,ESE,105,3.0,3.0,86,0.00,,,0.00,meteohub,2013-08-31 12:05:00,
2013-08-31 05:10:00,56.8,52.7,30.29,SSE,156,2.0,4.0,86,0.00,,,0.00,meteohub,2013-08-31 12:10:00,
2013-08-31 05:15:00,56.7,52.5,30.29,SSE,153,2.0,5.0,86,0.00,,,0.00,meteohub,2013-08-31 12:15:00,
2013-08-31 05:20:00,56.7,52.5,30.29,SSE,159,2.0,5.0,86,0.00,,,0.00,meteohub,2013-08-31 12:20:00,
2013-08-31 05:26:00,56.8,52.7,30.29,SE,146,0.0,4.0,86,0.00,,,0.00,meteohub,2013-08-31 12:26:00,
2013-08-31 05:31:00,57.2,53.1,30.29,SE,138,1.0,4.0,86,0.00,,,0.00,meteohub,2013-08-31 12:31:00,
2013-08-31 05:37:00,57.0,52.9,30.29,SE,138,0.0,4.0,86,0.00,,,0.00,meteohub,2013-08-31 12:37:00,
2013-08-31 05:42:00,56.7,52.5,30.29,SE,138,0.0,4.0,86,0.00,,,0.00,meteohub,2013-08-31 12:42:00,
2013-08-31 05:47:00,56.5,52.3,30.29,ESE,113,1.0,1.0,86,0.00,,,0.00,meteohub,2013-08-31 12:47:00,
2013-08-31 05:52:00,56.5,52.3,30.29,ESE,116,0.0,2.0,86,0.00,,,0.00,meteohub,2013-08-31 12:52:00,
2013-08-31 05:58:00,56.5,52.3,30.29,ESE,117,0.0,2.0,86,0.00,,,0.00,meteohub,2013-08-31 12:58:00,
2013-08-31 06:03:00,56.1,52.0,30.29,SE,140,0.0,2.0,86,0.00,,,0.00,meteohub,2013-08-31 13:03:00,
2013-08-31 06:08:00,55.9,51.8,30.29,ESE,113,1.0,1.0,86,0.00,,,0.00,meteohub,2013-08-31 13:08:00,
2013-08-31 06:13:00,55.9,51.8,30.29,ESE,113,0.0,2.0,86,0.00,,,0.00,meteohub,2013-08-31 13:13:00,
2013-08-31 06:19:00,55.8,51.6,30.30,SE,138,1.0,2.0,86,0.00,,,0.00,meteohub,2013-08-31 13:19:00,
2013-08-31 06:24:00,55.6,51.4,30.30,ESE,106,0.0,2.0,86,0.00,,,0.00,meteohub,2013-08-31 13:24:00,
2013-08-31 06:29:00,55.6,51.4,30.30,ESE,109,0.0,2.0,86,0.00,,,0.00,meteohub,2013-08-31 13:29:00,
2013-08-31 06:34:00,55.6,51.4,30.30,ESE,107,0.0,2.0,86,0.00,,,0.00,meteohub,2013-08-31 13:34:00,
2013-08-31 06:40:00,55.6,51.4,30.30,ESE,107,0.0,2.0,86,0.00,,,0.00,meteohub,2013-08-31 13:40:00,
2013-08-31 06:45:00,55.4,51.3,30.30,ESE,108,1.0,2.0,86,0.00,,,0.00,meteohub,2013-08-31 13:45:00,
2013-08-31 06:50:00,55.6,51.4,30.30,ESE,108,0.0,1.0,86,0.00,,,0.00,meteohub,2013-08-31 13:50:00,
2013-08-31 06:56:00,56.5,52.3,30.30,ESE,107,0.0,1.0,86,0.00,,,0.00,meteohub,2013-08-31 13:56:00,
2013-08-31 07:01:00,57.0,52.5,30.30,ESE,122,0.0,1.0,85,0.00,,,0.00,meteohub,2013-08-31 14:01:00,
2013-08-31 07:06:00,56.8,52.7,30.30,ESE,122,0.0,1.0,86,0.00,,,0.00,meteohub,2013-08-31 14:06:00,
2013-08-31 07:11:00,56.8,52.7,30.30,ESE,122,0.0,1.0,86,0.00,,,0.00,meteohub,2013-08-31 14:11:00,
2013-08-31 07:16:00,57.7,53.2,30.30,ESE,122,0.0,1.0,85,0.00,,,0.00,meteohub,2013-08-31 14:16:00,
2013-08-31 07:22:00,58.6,53.8,30.30,ESE,122,0.0,1.0,84,0.00,,,0.00,meteohub,2013-08-31 14:22:00,
2013-08-31 07:27:00,59.0,53.8,30.30,ESE,122,0.0,1.0,83,0.00,,,0.00,meteohub,2013-08-31 14:27:00,
2013-08-31 07:32:00,59.2,54.0,30.30,SE,140,1.0,1.0,83,0.00,,,0.00,meteohub,2013-08-31 14:32:00,
2013-08-31 07:37:00,59.4,54.1,30.30,SE,146,0.0,2.0,83,0.00,,,0.00,meteohub,2013-08-31 14:37:00,
2013-08-31 07:42:00,59.9,54.7,30.30,ESE,115,0.0,2.0,83,0.00,,,0.00,meteohub,2013-08-31 14:42:00,
2013-08-31 07:48:00,60.3,54.3,30.30,NNE,27,2.0,2.0,81,0.00,,,0.00,meteohub,2013-08-31 14:48:00,
2013-08-31 07:53:00,60.4,54.5,30.30,NE,41,2.0,4.0,81,0.00,,,0.00,meteohub,2013-08-31 14:53:00,
2013-08-31 07:58:00,60.6,54.1,30.29,NE,46,2.0,4.0,79,0.00,,,0.00,meteohub,2013-08-31 14:58:00,
2013-08-31 08:03:00,60.6,54.1,30.30,ENE,76,2.0,4.0,79,0.00,,,0.00,meteohub,2013-08-31 15:03:00,
2013-08-31 08:09:00,61.0,54.1,30.30,NNW,344,0.0,4.0,78,0.00,,,0.00,meteohub,2013-08-31 15:09:00,
2013-08-31 08:14:00,61.2,54.3,30.30,NNW,348,1.0,4.0,78,0.00,,,0.00,meteohub,2013-08-31 15:14:00,
2013-08-31 08:19:00,61.3,54.1,30.30,NE,53,2.0,4.0,77,0.00,,,0.00,meteohub,2013-08-31 15:19:00,
2013-08-31 08:25:00,61.9,54.3,30.29,NE,44,0.0,4.0,76,0.00,,,0.00,meteohub,2013-08-31 15:25:00,
2013-08-31 08:30:00,62.2,54.1,30.29,NE,39,2.0,4.0,75,0.00,,,0.00,meteohub,2013-08-31 15:30:00,
2013-08-31 08:36:00,62.6,54.9,30.29,NE,54,1.0,3.0,76,0.00,,,0.00,meteohub,2013-08-31 15:36:00,
2013-08-31 08:41:00,63.3,55.6,30.29,NE,51,2.0,3.0,76,0.00,,,0.00,meteohub,2013-08-31 15:41:00,
2013-08-31 08:47:00,64.0,56.7,30.29,SE,126,1.0,4.0,77,0.00,,,0.00,meteohub,2013-08-31 15:47:00,
2013-08-31 08:52:00,64.4,55.9,30.29,NE,46,3.0,4.0,74,0.00,,,0.00,meteohub,2013-08-31 15:52:00,
2013-08-31 08:57:00,64.2,56.5,30.28,ENE,78,2.0,4.0,76,0.00,,,0.00,meteohub,2013-08-31 15:57:00,
2013-08-31 09:03:00,64.6,56.1,30.28,NNW,346,2.0,4.0,74,0.00,,,0.00,meteohub,2013-08-31 16:03:00,
2013-08-31 09:08:00,64.8,56.3,30.28,NE,42,3.0,4.0,74,0.00,,,0.00,meteohub,2013-08-31 16:08:00,
2013-08-31 09:13:00,64.8,55.9,30.28,NE,35,1.0,4.0,73,0.00,,,0.00,meteohub,2013-08-31 16:13:00,
2013-08-31 09:19:00,64.9,56.5,30.28,NE,40,2.0,4.0,74,0.00,,,0.00,meteohub,2013-08-31 16:19:00,
2013-08-31 09:24:00,65.7,56.8,30.28,NE,35,1.0,4.0,73,0.00,,,0.00,meteohub,2013-08-31 16:24:00,
2013-08-31 09:29:00,66.4,57.4,30.28,North,0,3.0,4.0,73,0.00,,,0.00,meteohub,2013-08-31 16:29:00,
2013-08-31 09:35:00,66.4,56.3,30.27,NNE,32,3.0,4.0,70,0.00,,,0.00,meteohub,2013-08-31 16:35:00,
2013-08-31 09:40:00,66.4,56.7,30.27,NE,46,1.0,4.0,71,0.00,,,0.00,meteohub,2013-08-31 16:40:00,
2013-08-31 09:45:00,66.7,56.7,30.27,East,96,1.0,4.0,70,0.00,,,0.00,meteohub,2013-08-31 16:45:00,
2013-08-31 09:50:00,67.5,57.0,30.27,NW,325,2.0,5.0,69,0.00,,,0.00,meteohub,2013-08-31 16:50:00,
2013-08-31 09:55:00,67.6,56.3,30.27,NE,35,3.0,5.0,67,0.00,,,0.00,meteohub,2013-08-31 16:55:00,
2013-08-31 10:01:00,67.8,56.8,30.27,NE,40,2.0,5.0,68,0.00,,,0.00,meteohub,2013-08-31 17:01:00,
2013-08-31 10:06:00,68.0,56.7,30.27,NNE,13,4.0,6.0,67,0.00,,,0.00,meteohub,2013-08-31 17:06:00,
2013-08-31 10:11:00,68.0,56.7,30.26,North,5,2.0,6.0,67,0.00,,,0.00,meteohub,2013-08-31 17:11:00,
2013-08-31 10:16:00,68.2,57.2,30.26,NE,51,2.0,6.0,68,0.00,,,0.00,meteohub,2013-08-31 17:16:00,
2013-08-31 10:21:00,69.1,57.2,30.26,ENE,61,1.0,5.0,66,0.00,,,0.00,meteohub,2013-08-31 17:21:00,
2013-08-31 10:27:00,68.9,56.3,30.26,NW,317,2.0,4.0,64,0.00,,,0.00,meteohub,2013-08-31 17:27:00,
2013-08-31 10:32:00,69.3,56.1,30.25,NE,49,4.0,4.0,63,0.00,,,0.00,meteohub,2013-08-31 17:32:00,
2013-08-31 10:37:00,69.4,56.3,30.25,ENE,78,1.0,4.0,63,0.00,,,0.00,meteohub,2013-08-31 17:37:00,
2013-08-31 10:42:00,70.5,56.8,30.25,ESE,109,2.0,4.0,62,0.00,,,0.00,meteohub,2013-08-31 17:42:00,
2013-08-31 10:47:00,71.8,56.1,30.25,NNE,27,3.0,4.0,58,0.00,,,0.00,meteohub,2013-08-31 17:47:00,
2013-08-31 10:52:00,72.1,55.6,30.25,ENE,74,1.0,4.0,56,0.00,,,0.00,meteohub,2013-08-31 17:52:00,
2013-08-31 10:57:00,72.9,55.8,30.24,NE,54,3.0,6.0,55,0.00,,,0.00,meteohub,2013-08-31 17:57:00,
2013-08-31 11:02:00,73.2,56.1,30.24,East,86,1.0,8.0,55,0.00,,,0.00,meteohub,2013-08-31 18:02:00,
2013-08-31 11:07:00,73.8,56.7,30.24,NW,309,3.0,10.0,55,0.00,,,0.00,meteohub,2013-08-31 18:07:00,
2013-08-31 11:12:00,74.1,56.5,30.23,ENE,57,2.0,10.0,54,0.00,,,0.00,meteohub,2013-08-31 18:12:00,
2013-08-31 11:17:00,74.5,56.7,30.23,NNE,19,3.0,7.0,54,0.00,,,0.00,meteohub,2013-08-31 18:17:00,
2013-08-31 11:23:00,75.0,55.6,30.23,ENE,66,8.0,8.0,51,0.00,,,0.00,meteohub,2013-08-31 18:23:00,
2013-08-31 11:28:00,76.1,56.7,30.22,NW,326,1.0,6.0,51,0.00,,,0.00,meteohub,2013-08-31 18:28:00,
2013-08-31 11:33:00,77.4,55.6,30.22,ENE,61,3.0,8.0,47,0.00,,,0.00,meteohub,2013-08-31 18:33:00,
2013-08-31 11:38:00,77.9,54.9,30.22,East,90,2.0,8.0,45,0.00,,,0.00,meteohub,2013-08-31 18:38:00,
2013-08-31 11:43:00,78.4,55.4,30.22,ENE,78,3.0,12.0,45,0.00,,,0.00,meteohub,2013-08-31 18:43:00,
2013-08-31 11:48:00,79.3,54.9,30.22,NE,34,4.0,12.0,43,0.00,,,0.00,meteohub,2013-08-31 18:48:00,
2013-08-31 11:53:00,79.0,54.0,30.21,NNW,344,10.0,12.0,42,0.00,,,0.00,meteohub,2013-08-31 18:53:00,
2013-08-31 11:58:00,79.3,54.3,30.21,ESE,108,9.0,12.0,42,0.00,,,0.00,meteohub,2013-08-31 18:58:00,
2013-08-31 12:03:00,79.5,53.8,30.21,NE,42,3.0,12.0,41,0.00,,,0.00,meteohub,2013-08-31 19:03:00,
2013-08-31 12:08:00,80.1,54.3,30.20,ESE,119,7.0,12.0,41,0.00,,,0.00,meteohub,2013-08-31 19:08:00,
2013-08-31 12:13:00,80.1,54.3,30.20,NE,52,1.0,11.0,41,0.00,,,0.00,meteohub,2013-08-31 19:13:00,
2013-08-31 12:19:00,80.2,53.8,30.20,ENE,76,10.0,10.0,40,0.00,,,0.00,meteohub,2013-08-31 19:19:00,
2013-08-31 12:24:00,80.4,54.0,30.19,NNW,344,3.0,13.0,40,0.00,,,0.00,meteohub,2013-08-31 19:24:00,
2013-08-31 12:29:00,80.8,54.1,30.19,ENE,66,3.0,13.0,40,0.00,,,0.00,meteohub,2013-08-31 19:29:00,
2013-08-31 12:34:00,81.3,54.0,30.19,ENE,60,5.0,13.0,39,0.00,,,0.00,meteohub,2013-08-31 19:34:00,
2013-08-31 12:39:00,81.0,53.6,30.19,ENE,78,2.0,12.0,39,0.00,,,0.00,meteohub,2013-08-31 19:39:00,
2013-08-31 12:44:00,81.3,54.0,30.19,ENE,66,5.0,12.0,39,0.00,,,0.00,meteohub,2013-08-31 19:44:00,
2013-08-31 12:49:00,81.9,55.2,30.18,ENE,76,1.0,12.0,40,0.00,,,0.00,meteohub,2013-08-31 19:49:00,
2013-08-31 12:54:00,82.8,55.2,30.18,ENE,67,5.0,10.0,39,0.00,,,0.00,meteohub,2013-08-31 19:54:00,
2013-08-31 12:59:00,83.3,55.0,30.18,ENE,61,11.0,11.0,38,0.00,,,0.00,meteohub,2013-08-31 19:59:00,
2013-08-31 13:04:00,83.7,54.0,30.18,ESE,108,4.0,11.0,36,0.00,,,0.00,meteohub,2013-08-31 20:04:00,
2013-08-31 13:09:00,83.8,54.0,30.18,ENE,67,4.0,11.0,36,0.00,,,0.00,meteohub,2013-08-31 20:09:00,
2013-08-31 13:14:00,83.8,54.0,30.17,East,84,3.0,11.0,36,0.00,,,0.00,meteohub,2013-08-31 20:14:00,
2013-08-31 13:19:00,84.0,54.9,30.17,ESE,114,3.0,11.0,37,0.00,,,0.00,meteohub,2013-08-31 20:19:00,
2013-08-31 13:24:00,84.4,53.8,30.17,NE,40,4.0,11.0,35,0.00,,,0.00,meteohub,2013-08-31 20:24:00,
2013-08-31 13:30:00,84.7,53.2,30.17,NE,35,8.0,11.0,34,0.00,,,0.00,meteohub,2013-08-31 20:30:00,
2013-08-31 13:35:00,84.9,54.1,30.17,NE,47,3.0,12.0,35,0.00,,,0.00,meteohub,2013-08-31 20:35:00,
2013-08-31 13:40:00,85.1,53.6,30.17,ENE,72,3.0,12.0,34,0.00,,,0.00,meteohub,2013-08-31 20:40:00,
2013-08-31 13:45:00,85.3,54.5,30.16,ENE,68,5.0,12.0,35,0.00,,,0.00,meteohub,2013-08-31 20:45:00,
2013-08-31 13:50:00,85.5,54.7,30.16,NE,41,4.0,10.0,35,0.00,,,0.00,meteohub,2013-08-31 20:50:00,
2013-08-31 13:55:00,85.6,54.0,30.16,ENE,68,7.0,13.0,34,0.00,,,0.00,meteohub,2013-08-31 20:55:00,
2013-08-31 14:00:00,85.6,54.0,30.16,SE,141,5.0,13.0,34,0.00,,,0.00,meteohub,2013-08-31 21:00:00,
2013-08-31 14:05:00,85.8,54.1,30.15,East,88,2.0,13.0,34,0.00,,,0.00,meteohub,2013-08-31 21:05:00,
2013-08-31 14:10:00,86.4,54.7,30.15,ENE,63,3.0,11.0,34,0.00,,,0.00,meteohub,2013-08-31 21:10:00,
2013-08-31 14:15:00,86.4,53.8,30.15,NE,43,4.0,11.0,33,0.00,,,0.00,meteohub,2013-08-31 21:15:00,
2013-08-31 14:20:00,86.5,53.2,30.15,ENE,63,2.0,9.0,32,0.00,,,0.00,meteohub,2013-08-31 21:20:00,
2013-08-31 14:25:00,86.5,54.9,30.14,NNE,32,1.0,14.0,34,0.00,,,0.00,meteohub,2013-08-31 21:25:00,
2013-08-31 14:30:00,86.9,54.3,30.14,ENE,66,5.0,14.0,33,0.00,,,0.00,meteohub,2013-08-31 21:30:00,
2013-08-31 14:35:00,87.1,53.6,30.14,NNE,15,5.0,14.0,32,0.00,,,0.00,meteohub,2013-08-31 21:35:00,
2013-08-31 14:41:00,87.3,54.7,30.13,NE,35,4.0,10.0,33,0.00,,,0.00,meteohub,2013-08-31 21:41:00,
2013-08-31 14:46:00,87.1,54.5,30.13,ENE,76,3.0,11.0,33,0.00,,,0.00,meteohub,2013-08-31 21:46:00,
2013-08-31 14:51:00,87.4,53.1,30.13,NE,38,4.0,11.0,31,0.00,,,0.00,meteohub,2013-08-31 21:51:00,
2013-08-31 14:56:00,87.8,53.4,30.12,NNE,30,4.0,11.0,31,0.00,,,0.00,meteohub,2013-08-31 21:56:00,
2013-08-31 15:01:00,88.0,54.5,30.12,NE,46,2.0,10.0,32,0.00,,,0.00,meteohub,2013-08-31 22:01:00,
2013-08-31 15:06:00,88.0,53.6,30.12,East,99,1.0,8.0,31,0.00,,,0.00,meteohub,2013-08-31 22:06:00,
2013-08-31 15:11:00,88.2,53.8,30.12,ENE,63,3.0,9.0,31,0.00,,,0.00,meteohub,2013-08-31 22:11:00,
2013-08-31 15:16:00,88.3,53.8,30.12,ENE,74,4.0,9.0,31,0.00,,,0.00,meteohub,2013-08-31 22:16:00,
2013-08-31 15:21:00,88.3,53.1,30.11,ESE,111,2.0,9.0,30,0.00,,,0.00,meteohub,2013-08-31 22:21:00,
2013-08-31 15:26:00,88.9,54.3,30.11,NE,35,2.0,9.0,31,0.00,,,0.00,meteohub,2013-08-31 22:26:00,
2013-08-31 15:31:00,88.9,53.4,30.11,NE,53,4.0,8.0,30,0.00,,,0.00,meteohub,2013-08-31 22:31:00,
2013-08-31 15:36:00,89.2,54.7,30.10,NE,34,6.0,9.0,31,0.00,,,0.00,meteohub,2013-08-31 22:36:00,
2013-08-31 15:41:00,89.4,54.0,30.10,ESE,104,4.0,9.0,30,0.00,,,0.00,meteohub,2013-08-31 22:41:00,
2013-08-31 15:46:00,89.8,54.1,30.10,East,101,6.0,8.0,30,0.00,,,0.00,meteohub,2013-08-31 22:46:00,
2013-08-31 15:52:00,89.8,53.2,30.10,ESE,104,2.0,8.0,29,0.00,,,0.00,meteohub,2013-08-31 22:52:00,
2013-08-31 15:57:00,90.1,53.6,30.09,ENE,63,3.0,8.0,29,0.00,,,0.00,meteohub,2013-08-31 22:57:00,
2013-08-31 16:02:00,90.0,54.3,30.09,NE,46,4.0,7.0,30,0.00,,,0.00,meteohub,2013-08-31 23:02:00,
2013-08-31 16:07:00,90.0,52.5,30.09,NNW,339,3.0,7.0,28,0.00,,,0.00,meteohub,2013-08-31 23:07:00,
2013-08-31 16:12:00,90.0,53.4,30.09,ENE,63,4.0,8.0,29,0.00,,,0.00,meteohub,2013-08-31 23:12:00,
2013-08-31 16:17:00,89.8,53.2,30.09,East,83,0.0,8.0,29,0.00,,,0.00,meteohub,2013-08-31 23:17:00,
2013-08-31 16:22:00,89.8,53.2,30.09,ENE,58,3.0,8.0,29,0.00,,,0.00,meteohub,2013-08-31 23:22:00,
2013-08-31 16:27:00,90.1,53.6,30.09,NE,53,3.0,8.0,29,0.00,,,0.00,meteohub,2013-08-31 23:27:00,
2013-08-31 16:32:00,90.1,52.7,30.08,NNE,13,3.0,8.0,28,0.00,,,0.00,meteohub,2013-08-31 23:32:00,
2013-08-31 16:37:00,90.1,52.7,30.08,NE,38,3.0,8.0,28,0.00,,,0.00,meteohub,2013-08-31 23:37:00,
2013-08-31 16:42:00,90.1,52.7,30.08,NNW,338,2.0,8.0,28,0.00,,,0.00,meteohub,2013-08-31 23:42:00,
2013-08-31 16:47:00,90.3,52.9,30.08,East,92,5.0,8.0,28,0.00,,,0.00,meteohub,2013-08-31 23:47:00,
2013-08-31 16:52:00,90.9,53.2,30.08,ENE,76,1.0,8.0,28,0.00,,,0.00,meteohub,2013-08-31 23:52:00,
2013-08-31 16:57:00,90.5,52.0,30.07,WNW,295,2.0,5.0,27,0.00,,,0.00,meteohub,2013-08-31 23:57:00,
2013-08-31 17:02:00,90.7,53.1,30.07,NNE,21,4.0,8.0,28,0.00,,,0.00,meteohub,2013-09-01 00:02:00,
2013-08-31 17:07:00,90.9,53.2,30.07,NE,47,1.0,8.0,28,0.00,,,0.00,meteohub,2013-09-01 00:07:00,
2013-08-31 17:12:00,91.2,52.5,30.07,NNW,327,3.0,8.0,27,0.00,,,0.00,meteohub,2013-09-01 00:12:00,
2013-08-31 17:17:00,90.9,52.3,30.06,WNW,295,0.0,4.0,27,0.00,,,0.00,meteohub,2013-09-01 00:17:00,
2013-08-31 17:22:00,91.0,52.3,30.06,NE,34,3.0,4.0,27,0.00,,,0.00,meteohub,2013-09-01 00:22:00,
2013-08-31 17:27:00,91.0,52.3,30.06,SW,226,2.0,5.0,27,0.00,,,0.00,meteohub,2013-09-01 00:27:00,
2013-08-31 17:32:00,91.0,53.4,30.06,ESE,104,0.0,5.0,28,0.00,,,0.00,meteohub,2013-09-01 00:32:00,
2013-08-31 17:37:00,91.6,53.8,30.06,SW,236,2.0,5.0,28,0.00,,,0.00,meteohub,2013-09-01 00:37:00,
2013-08-31 17:42:00,92.1,52.3,30.06,South,178,1.0,4.0,26,0.00,,,0.00,meteohub,2013-09-01 00:42:00,
2013-08-31 17:47:00,92.7,53.8,30.06,WSW,248,0.0,3.0,27,0.00,,,0.00,meteohub,2013-09-01 00:47:00,
2013-08-31 17:52:00,92.5,54.7,30.06,West,270,1.0,3.0,28,0.00,,,0.00,meteohub,2013-09-01 00:52:00,
2013-08-31 17:57:00,91.8,53.1,30.06,NW,313,3.0,3.0,27,0.00,,,0.00,meteohub,2013-09-01 00:57:00,
2013-08-31 18:02:00,91.0,52.3,30.06,WNW,302,1.0,3.0,27,0.00,,,0.00,meteohub,2013-09-01 01:02:00,
2013-08-31 18:07:00,91.0,53.4,30.06,WNW,292,1.0,3.0,28,0.00,,,0.00,meteohub,2013-09-01 01:07:00,
2013-08-31 18:12:00,90.9,53.2,30.06,WNW,297,1.0,3.0,28,0.00,,,0.00,meteohub,2013-09-01 01:12:00,
2013-08-31 18:17:00,90.7,53.1,30.05,WNW,284,1.0,3.0,28,0.00,,,0.00,meteohub,2013-09-01 01:17:00,
2013-08-31 18:22:00,90.3,52.9,30.06,NW,322,1.0,3.0,28,0.00,,,0.00,meteohub,2013-09-01 01:22:00,
2013-08-31 18:27:00,90.0,53.4,30.05,NW,306,1.0,3.0,29,0.00,,,0.00,meteohub,2013-09-01 01:27:00,
2013-08-31 18:32:00,90.0,52.5,30.05,West,279,2.0,3.0,28,0.00,,,0.00,meteohub,2013-09-01 01:32:00,
2013-08-31 18:37:00,90.0,52.5,30.05,WSW,253,1.0,3.0,28,0.00,,,0.00,meteohub,2013-09-01 01:37:00,
2013-08-31 18:42:00,89.8,53.2,30.05,SW,217,2.0,3.0,29,0.00,,,0.00,meteohub,2013-09-01 01:42:00,
2013-08-31 18:47:00,90.0,54.3,30.05,WSW,241,1.0,3.0,30,0.00,,,0.00,meteohub,2013-09-01 01:47:00,
2013-08-31 18:52:00,89.8,54.1,30.05,SW,230,1.0,3.0,30,0.00,,,0.00,meteohub,2013-09-01 01:52:00,
2013-08-31 18:57:00,89.2,54.7,30.05,SW,234,0.0,2.0,31,0.00,,,0.00,meteohub,2013-09-01 01:57:00,
2013-08-31 19:02:00,88.7,54.1,30.05,SW,234,0.0,2.0,31,0.00,,,0.00,meteohub,2013-09-01 02:02:00,
2013-08-31 19:07:00,88.2,60.1,30.05,SW,234,0.0,1.0,39,0.00,,,0.00,meteohub,2013-09-01 02:07:00,
2013-08-31 19:13:00,87.4,62.2,30.05,SW,234,0.0,1.0,43,0.00,,,0.00,meteohub,2013-09-01 02:13:00,
2013-08-31 19:18:00,86.5,61.3,30.05,SSW,196,1.0,1.0,43,0.00,,,0.00,meteohub,2013-09-01 02:18:00,
2013-08-31 19:23:00,85.3,62.8,30.05,SSE,156,1.0,1.0,47,0.00,,,0.00,meteohub,2013-09-01 02:23:00,
2013-08-31 19:28:00,83.7,61.9,30.05,SSE,161,0.0,2.0,48,0.00,,,0.00,meteohub,2013-09-01 02:28:00,
2013-08-31 19:33:00,82.6,61.0,30.05,SSE,155,2.0,2.0,48,0.00,,,0.00,meteohub,2013-09-01 02:33:00,
2013-08-31 19:38:00,81.3,59.7,30.05,SSE,161,2.0,2.0,48,0.00,,,0.00,meteohub,2013-09-01 02:38:00,
2013-08-31 19:43:00,80.2,59.4,30.05,SW,217,1.0,3.0,49,0.00,,,0.00,meteohub,2013-09-01 02:43:00,
2013-08-31 19:48:00,79.7,59.4,30.06,SW,217,0.0,3.0,50,0.00,,,0.00,meteohub,2013-09-01 02:48:00,
2013-08-31 19:53:00,79.3,58.5,30.05,SW,217,0.0,3.0,49,0.00,,,0.00,meteohub,2013-09-01 02:53:00,
2013-08-31 19:58:00,79.0,58.8,30.06,SE,131,2.0,2.0,50,0.00,,,0.00,meteohub,2013-09-01 02:58:00,
2013-08-31 20:03:00,78.3,58.6,30.06,SSE,155,0.0,2.0,51,0.00,,,0.00,meteohub,2013-09-01 03:03:00,
2013-08-31 20:09:00,78.1,57.4,30.06,SE,142,0.0,2.0,49,0.00,,,0.00,meteohub,2013-09-01 03:09:00,
2013-08-31 20:14:00,77.7,57.6,30.06,SE,130,0.0,3.0,50,0.00,,,0.00,meteohub,2013-09-01 03:14:00,
2013-08-31 20:19:00,77.2,57.7,30.06,ESE,110,0.0,3.0,51,0.00,,,0.00,meteohub,2013-09-01 03:19:00,
2013-08-31 20:24:00,77.2,59.7,30.06,SE,136,0.0,3.0,55,0.00,,,0.00,meteohub,2013-09-01 03:24:00,
2013-08-31 20:29:00,77.0,59.5,30.06,SSE,148,0.0,1.0,55,0.00,,,0.00,meteohub,2013-09-01 03:29:00,
2013-08-31 20:34:00,76.8,59.9,30.07,SSE,164,2.0,2.0,56,0.00,,,0.00,meteohub,2013-09-01 03:34:00,
2013-08-31 20:39:00,76.6,60.3,30.07,SE,146,0.0,3.0,57,0.00,,,0.00,meteohub,2013-09-01 03:39:00,
2013-08-31 20:44:00,76.5,60.6,30.07,SSE,150,0.0,3.0,58,0.00,,,0.00,meteohub,2013-09-01 03:44:00,
2013-08-31 20:49:00,75.7,60.4,30.07,SW,233,0.0,3.0,59,0.00,,,0.00,meteohub,2013-09-01 03:49:00,
2013-08-31 20:54:00,75.4,59.0,30.07,SSW,203,3.0,3.0,57,0.00,,,0.00,meteohub,2013-09-01 03:54:00,
2013-08-31 20:59:00,75.0,58.8,30.07,East,95,2.0,4.0,57,0.00,,,0.00,meteohub,2013-09-01 03:59:00,
2013-08-31 21:01:00,74.8,59.0,30.07,ESE,110,0.0,4.0,58,0.00,,,0.00,meteohub,2013-09-01 04:01:00,
2013-08-31 21:02:00,74.7,58.8,30.07,ESE,110,0.0,4.0,58,0.00,,,0.00,meteohub,2013-09-01 04:02:00,
2013-08-31 21:03:00,74.7,58.8,30.07,ESE,110,0.0,4.0,58,0.00,,,0.00,meteohub,2013-09-01 04:03:00,
2013-08-31 21:04:00,74.5,59.2,30.07,ESE,110,0.0,4.0,59,0.00,,,0.00,meteohub,2013-09-01 04:04:00,
2013-08-31 21:08:00,74.1,58.8,30.08,SW,219,1.0,4.0,59,0.00,,,0.00,meteohub,2013-09-01 04:08:00,
2013-08-31 21:13:00,73.9,58.6,30.08,ESE,107,0.0,3.0,59,0.00,,,0.00,meteohub,2013-09-01 04:13:00,
2013-08-31 21:15:00,73.9,58.6,30.08,SE,136,0.0,3.0,59,0.00,,,0.00,meteohub,2013-09-01 04:15:00,
2013-08-31 21:20:00,73.8,59.0,30.08,SE,136,0.0,2.0,60,0.00,,,0.00,meteohub,2013-09-01 04:20:00,
2013-08-31 21:25:00,73.2,58.5,30.08,SE,136,0.0,2.0,60,0.00,,,0.00,meteohub,2013-09-01 04:25:00,
2013-08-31 21:30:00,72.9,58.6,30.08,ESE,113,0.0,1.0,61,0.00,,,0.00,meteohub,2013-09-01 04:30:00,
2013-08-31 21:35:00,72.3,58.6,30.08,SSE,159,0.0,1.0,62,0.00,,,0.00,meteohub,2013-09-01 04:35:00,
2013-08-31 21:40:00,72.1,59.4,30.08,SSE,159,0.0,2.0,64,0.00,,,0.00,meteohub,2013-09-01 04:40:00,
2013-08-31 21:45:00,71.8,58.5,30.08,ESE,117,2.0,2.0,63,0.00,,,0.00,meteohub,2013-09-01 04:45:00,
2013-08-31 21:50:00,71.8,58.1,30.08,ESE,122,1.0,2.0,62,0.00,,,0.00,meteohub,2013-09-01 04:50:00,
2013-08-31 21:56:00,72.0,57.4,30.08,ENE,68,2.0,3.0,60,0.00,,,0.00,meteohub,2013-09-01 04:56:00,
2013-08-31 22:01:00,72.1,57.0,30.08,East,82,0.0,3.0,59,0.00,,,0.00,meteohub,2013-09-01 05:01:00,
2013-08-31 22:06:00,72.1,57.0,30.08,ESE,102,0.0,3.0,59,0.00,,,0.00,meteohub,2013-09-01 05:06:00,
2013-08-31 22:11:00,72.0,56.8,30.09,East,81,1.0,3.0,59,0.00,,,0.00,meteohub,2013-09-01 05:11:00,
2013-08-31 22:16:00,72.0,57.4,30.09,SE,134,0.0,2.0,60,0.00,,,0.00,meteohub,2013-09-01 05:16:00,
2013-08-31 22:21:00,71.4,57.7,30.09,SE,133,0.0,2.0,62,0.00,,,0.00,meteohub,2013-09-01 05:21:00,
2013-08-31 22:26:00,71.1,57.7,30.09,SE,134,0.0,1.0,63,0.00,,,0.00,meteohub,2013-09-01 05:26:00,
2013-08-31 22:31:00,70.7,57.9,30.09,ESE,112,0.0,1.0,64,0.00,,,0.00,meteohub,2013-09-01 05:31:00,
2013-08-31 22:36:00,70.3,58.1,30.09,ESE,111,0.0,1.0,65,0.00,,,0.00,meteohub,2013-09-01 05:36:00,
2013-08-31 22:41:00,70.0,58.1,30.09,ESE,112,1.0,1.0,66,0.00,,,0.00,meteohub,2013-09-01 05:41:00,
2013-08-31 22:46:00,69.6,57.7,30.09,ESE,110,1.0,1.0,66,0.00,,,0.00,meteohub,2013-09-01 05:46:00,
2013-08-31 22:51:00,69.6,57.4,30.08,East,88,1.0,2.0,65,0.00,,,0.00,meteohub,2013-09-01 05:51:00,
2013-08-31 22:56:00,69.6,57.7,30.09,SE,130,0.0,3.0,66,0.00,,,0.00,meteohub,2013-09-01 05:56:00,
2013-08-31 23:02:00,69.4,57.9,30.08,SE,144,2.0,3.0,67,0.00,,,0.00,meteohub,2013-09-01 06:02:00,
2013-08-31 23:07:00,69.3,57.9,30.08,SE,134,1.0,3.0,67,0.00,,,0.00,meteohub,2013-09-01 06:07:00,
2013-08-31 23:12:00,68.9,57.9,30.09,SSE,150,0.0,2.0,68,0.00,,,0.00,meteohub,2013-09-01 06:12:00,
2013-08-31 23:17:00,68.5,57.9,30.09,WSW,240,2.0,2.0,69,0.00,,,0.00,meteohub,2013-09-01 06:17:00,
2013-08-31 23:22:00,68.4,57.7,30.09,SW,226,0.0,2.0,69,0.00,,,0.00,meteohub,2013-09-01 06:22:00,
2013-08-31 23:27:00,68.2,58.1,30.09,SSE,159,0.0,2.0,70,0.00,,,0.00,meteohub,2013-09-01 06:27:00,
2013-08-31 23:32:00,67.8,57.7,30.09,SSE,157,0.0,2.0,70,0.00,,,0.00,meteohub,2013-09-01 06:32:00,
2013-08-31 23:37:00,67.5,57.7,30.09,SSE,157,0.0,2.0,71,0.00,,,0.00,meteohub,2013-09-01 06:37:00,
2013-08-31 23:42:00,67.1,57.7,30.09,SSE,159,1.0,2.0,72,0.00,,,0.00,meteohub,2013-09-01 06:42:00,
2013-08-31 23:47:00,66.7,57.4,30.09,SSE,159,1.0,2.0,72,0.00,,,0.00,meteohub,2013-09-01 06:47:00,
2013-08-31 23:52:00,66.2,57.2,30.09,SE,145,3.0,3.0,73,0.00,,,0.00,meteohub,2013-09-01 06:52:00,
2013-08-31 23:57:00,65.8,57.4,30.09,SSE,155,1.0,3.0,74,0.00,,,0.00,meteohub,2013-09-01 06:57:00,